Thorntown, Indiana
Current Conditions -  °F | °C
As of 11:35 PM on Friday 19 Dec 2014 (Local Time) from KFKR Reporting Station
Haze Haze  
Wind Chill: 29°   Ceiling: 2400
Heat Index: 29°   Visibility: 5mi
Dew Point: 29°   Wind: 0mph
Humidity: 100%   Direction: NA
Pressure: 30.28"   Gusts: NA
Location:  40.13°N, 86.61°W
Report Text: KFKR 200435Z AUTO 00000KT 5SM BR BKN024 M02/M02 A3028 RMK AO2 T10161016
Loading
Personal Weather Stations






























Interactive Weather Map New forecast layout! Learn more

10-Day Weather Forecast

Advertisements
Track Severe Weather on mobile